Time;durP1;ratioP1;P1;durP2;ratioP2;P2;SDS_P1;SDS_P2;PMS_P1;PMS_P2;Temp;Humidity;BMP_temperature;BMP_pressure;BME280_temperature;BME280_humidity;BME280_pressure;Samples;Min_cycle;Max_cycle;Signal;HPM_P1;HPM_P2
2021/09/29 04:55:41;;;;;;;13.43;9.73;;;;;;;9.63;97.37;101398.75;1693254;82;21171;-37
2021/09/29 04:58:09;;;;;;;14.83;9.40;;;;;;;9.67;96.89;101401.86;1706619;82;21688;-38
2021/09/29 05:00:36;;;;;;;13.45;9.45;;;;;;;9.71;96.74;101406.31;1709155;82;21039;-32
2021/09/29 05:03:03;;;;;;;11.18;9.63;;;;;;;9.75;96.38;101403.35;1707046;82;21019;-36
2021/09/29 05:05:34;;;;;;;11.97;9.23;;;;;;;9.77;95.97;101399.91;1704023;82;21116;-37
2021/09/29 05:08:01;;;;;;;14.40;9.55;;;;;;;9.84;95.77;101406.14;1692494;82;21063;-33
2021/09/29 05:10:42;;;;;;;15.43;9.30;;;;;;;9.89;95.39;101405.81;1699725;82;21586;-33
2021/09/29 05:13:12;;;;;;;15.90;10.10;;;;;;;9.94;94.95;101406.78;1711071;82;21493;-38
2021/09/29 05:15:39;;;;;;;12.55;9.10;;;;;;;9.99;94.61;101412.11;1699434;82;21450;-38
2021/09/29 05:18:07;;;;;;;14.30;9.83;;;;;;;10.05;94.43;101409.19;1696998;82;21373;-38
2021/09/29 05:20:35;;;;;;;10.65;9.10;;;;;;;10.11;94.09;101408.43;1709021;81;21599;-38
2021/09/29 05:23:04;;;;;;;15.00;9.70;;;;;;;10.17;93.77;101409.86;1707963;81;21101;-38
2021/09/29 05:25:32;;;;;;;11.88;9.15;;;;;;;10.21;92.96;101410.38;1696920;82;21066;-31
2021/09/29 05:28:01;;;;;;;14.50;9.63;;;;;;;10.23;92.45;101413.93;1699443;82;21792;-36
2021/09/29 05:30:28;;;;;;;15.65;9.53;;;;;;;10.25;92.18;101413.52;1693713;82;21002;-31
2021/09/29 05:32:55;;;;;;;15.50;8.93;;;;;;;10.28;92.14;101420.13;1708238;81;21175;-31
2021/09/29 05:35:22;;;;;;;10.13;9.13;;;;;;;10.31;91.60;101412.33;1694031;81;21141;-37
2021/09/29 05:37:49;;;;;;;14.65;9.58;;;;;;;10.32;91.09;101412.81;1702931;82;21039;-32
2021/09/29 05:40:16;;;;;;;11.03;9.18;;;;;;;10.34;90.95;101419.37;1692726;83;21027;-34
2021/09/29 05:42:44;;;;;;;11.38;10.03;;;;;;;10.35;90.70;101418.51;1704888;81;21681;-32
2021/09/29 05:45:12;;;;;;;11.05;9.03;;;;;;;10.36;90.64;101426.37;1707500;81;21008;-32
2021/09/29 05:47:39;;;;;;;17.57;9.00;;;;;;;10.39;90.35;101434.30;1697600;82;21896;-32
2021/09/29 05:50:06;;;;;;;14.65;8.78;;;;;;;10.41;90.15;101429.08;1691911;82;21656;-32
2021/09/29 05:52:33;;;;;;;12.73;9.50;;;;;;;10.44;89.75;101429.59;1705660;82;21488;-33
2021/09/29 05:55:01;;;;;;;11.10;9.35;;;;;;;10.47;89.41;101434.43;1690838;82;21440;-33
2021/09/29 05:57:29;;;;;;;14.20;9.18;;;;;;;10.50;89.24;101434.50;1686054;83;21065;-33
2021/09/29 05:59:57;;;;;;;12.68;8.30;;;;;;;10.57;89.04;101438.11;1690637;81;21159;-37
2021/09/29 06:02:24;;;;;;;11.93;9.30;;;;;;;10.62;88.44;101435.15;1695733;83;21650;-31
2021/09/29 06:04:52;;;;;;;10.85;8.43;;;;;;;10.65;87.94;101432.14;1691585;82;21097;-33
2021/09/29 06:07:18;;;;;;;12.63;9.05;;;;;;;10.69;87.87;101432.20;1624412;85;21030;-37
2021/09/29 06:09:45;;;;;;;12.55;9.40;;;;;;;10.74;87.54;101434.48;1694273;82;21051;-37
2021/09/29 06:12:13;;;;;;;13.32;9.50;;;;;;;10.75;87.35;101437.55;1706238;82;21115;-37
2021/09/29 06:14:42;;;;;;;14.60;9.48;;;;;;;10.79;86.98;101428.91;1659870;84;21037;-37
2021/09/29 06:17:26;;;;;;;15.40;11.20;;;;;;;10.81;86.63;101428.48;1696865;82;21481;-37
2021/09/29 06:19:55;;;;;;;12.20;9.40;;;;;;;10.84;86.77;101433.76;1689107;82;21119;-33
2021/09/29 06:22:23;;;;;;;13.13;9.63;;;;;;;10.92;86.72;101431.73;1675916;82;21045;-33
2021/09/29 06:24:52;;;;;;;10.30;8.35;;;;;;;10.99;85.58;101434.45;1631691;85;21076;-33
2021/09/29 06:27:20;;;;;;;21.77;9.95;;;;;;;11.00;84.84;101442.76;1647846;84;21006;-36
2021/09/29 06:29:47;;;;;;;12.45;8.83;;;;;;;11.00;85.03;101442.33;1650336;84;21040;-31
2021/09/29 06:32:14;;;;;;;10.58;7.90;;;;;;;11.04;84.52;101448.08;1638093;84;21123;-31
2021/09/29 06:34:41;;;;;;;15.10;10.08;;;;;;;11.09;84.36;101449.04;1695205;82;21492;-39
2021/09/29 06:37:08;;;;;;;10.28;7.80;;;;;;;11.12;84.07;101456.92;1689792;82;21066;-39
2021/09/29 06:39:36;;;;;;;9.93;7.85;;;;;;;11.15;83.71;101456.11;1695380;82;21096;-40
2021/09/29 06:42:03;;;;;;;11.73;8.58;;;;;;;11.21;83.43;101455.33;1697355;82;21046;-39
2021/09/29 06:44:31;;;;;;;14.35;8.95;;;;;;;11.26;83.12;101449.73;1697508;82;21631;-39
2021/09/29 06:47:01;;;;;;;10.13;8.10;;;;;;;11.31;82.52;101449.39;1692686;82;21633;-41
2021/09/29 06:49:27;;;;;;;10.08;7.50;;;;;;;11.36;82.31;101454.23;1691483;83;21559;-40
2021/09/29 06:51:54;;;;;;;9.03;7.05;;;;;;;11.41;81.86;101457.81;1698051;82;21527;-35
2021/09/29 06:58:00;;;;;;;10.03;7.17;;;;;;;11.46;81.48;101458.33;1563305;88;21243;-32
2021/09/29 07:00:26;;;;;;;8.78;6.70;;;;;;;11.51;81.36;101458.41;1597871;87;21155;-32
2021/09/29 07:02:57;;;;;;;9.00;7.10;;;;;;;11.57;81.39;101458.92;1579978;87;21060;-32
2021/09/29 07:05:25;;;;;;;7.50;6.53;;;;;;;11.58;80.16;101464.18;1595695;87;21065;-37
2021/09/29 07:07:59;;;;;;;9.35;7.03;;;;;;;11.61;79.98;101463.36;1581297;87;21168;-38
2021/09/29 07:10:33;;;;;;;7.33;5.80;;;;;;;11.65;79.25;101464.75;1589894;87;21577;-31
2021/09/29 07:13:00;;;;;;;10.70;7.70;;;;;;;11.70;79.69;101468.28;1594555;87;21153;-31
2021/09/29 07:15:29;;;;;;;11.50;7.47;;;;;;;11.77;79.90;101472.30;1585495;87;21092;-32
2021/09/29 07:17:59;;;;;;;8.60;7.35;;;;;;;11.85;79.70;101463.73;1593855;87;21948;-32
2021/09/29 07:20:29;;;;;;;7.92;6.90;;;;;;;11.93;78.83;101471.25;1612004;86;21647;-35
2021/09/29 07:22:58;;;;;;;9.20;7.20;;;;;;;11.97;78.73;101473.06;1595044;87;21175;-32
2021/09/29 07:25:29;;;;;;;10.20;7.53;;;;;;;12.01;78.07;101470.06;1627732;85;21020;-37
2021/09/29 07:27:57;;;;;;;11.08;6.58;;;;;;;12.07;77.45;101470.13;1627562;85;21032;-37
2021/09/29 07:30:25;;;;;;;12.13;6.95;;;;;;;12.18;77.10;101471.58;1618629;86;21050;-32
2021/09/29 07:32:52;;;;;;;8.10;6.25;;;;;;;12.29;77.04;101472.99;1629885;86;21473;-32
2021/09/29 07:35:19;;;;;;;7.12;6.42;;;;;;;12.40;76.40;101478.81;1630570;85;21662;-33
2021/09/29 07:37:52;;;;;;;9.90;5.78;;;;;;;12.46;75.76;101478.00;1622739;86;21552;-34
2021/09/29 07:40:19;;;;;;;8.60;6.35;;;;;;;12.50;75.38;101475.87;1634135;86;21068;-38
2021/09/29 07:42:46;;;;;;;10.68;6.62;;;;;;;12.53;74.28;101471.98;1625961;86;21566;-37
2021/09/29 07:45:15;;;;;;;10.68;6.53;;;;;;;12.55;74.32;101483.80;1631071;85;21470;-37
2021/09/29 07:47:43;;;;;;;9.05;6.15;;;;;;;12.58;74.37;101483.41;1626700;85;21062;-36
2021/09/29 07:50:12;;;;;;;9.18;7.15;;;;;;;12.62;74.11;101484.30;1625784;85;20994;-37
2021/09/29 07:52:44;;;;;;;10.30;6.35;;;;;;;12.60;73.13;101485.61;1611506;86;21575;-32
2021/09/29 07:55:12;;;;;;;8.98;6.47;;;;;;;12.58;73.13;101485.13;1617721;85;21569;-32
2021/09/29 07:57:43;;;;;;;13.18;6.83;;;;;;;12.54;73.04;101487.30;1610114;86;21084;-33
2021/09/29 08:00:13;;;;;;;9.28;6.40;;;;;;;12.52;73.03;101487.25;1617268;85;20984;-36
2021/09/29 08:02:41;;;;;;;6.62;5.90;;;;;;;12.49;73.14;101495.11;1618741;86;21913;-37
2021/09/29 08:05:08;;;;;;;8.00;6.22;;;;;;;12.47;72.93;101488.98;1623893;85;21516;-32
2021/09/29 08:07:42;;;;;;;8.58;7.12;;;;;;;12.47;72.55;101490.28;1620141;86;21013;-32
2021/09/29 08:10:13;;;;;;;7.62;5.83;;;;;;;12.46;72.82;101493.31;1626728;85;21059;-32
2021/09/29 08:12:41;;;;;;;8.85;6.30;;;;;;;12.49;73.06;101490.73;1633146;85;21418;-37
2021/09/29 08:15:15;;;;;;;17.42;6.58;;;;;;;12.53;72.85;101489.48;1633305;85;21493;-37
2021/09/29 08:17:43;;;;;;;9.28;6.00;;;;;;;12.55;72.70;101490.36;1628363;85;21720;-37
2021/09/29 08:22:40;;;;;;;8.73;6.05;;;;;;;12.56;71.93;101487.74;1632877;86;21686;-37
2021/09/29 08:30:25;;;;;;;8.23;6.03;;;;;;;12.36;71.58;101493.22;1618109;86;21173;-37
2021/09/29 08:35:27;;;;;;;9.00;6.58;;;;;;;12.28;71.75;101493.11;1627772;85;21646;-38
2021/09/29 08:40:17;;;;;;;6.60;5.62;;;;;;;12.31;72.16;101494.91;1618761;86;21012;-38
2021/09/29 08:45:15;;;;;;;8.43;6.05;;;;;;;12.38;72.14;101495.42;1628175;85;21075;-34
2021/09/29 08:47:53;;;;;;;11.22;6.90;;;;;;;12.39;72.21;101499.80;1626496;85;21458;-32
2021/09/29 08:50:38;;;;;;;6.72;6.05;;;;;;;12.40;71.56;101499.81;1628386;85;21056;-33
2021/09/29 09:15:08;;;;;;;6.65;5.47;;;;;;;12.74;69.92;101494.49;1625837;86;21106;-37
2021/09/29 09:17:33;;;;;;;7.05;4.78;;;;;;;12.81;70.46;101486.23;1631042;85;21410;-32
2021/09/29 09:20:24;;;;;;;6.83;4.30;;;;;;;12.95;69.98;101495.58;1622482;85;21147;-38
2021/09/29 09:22:52;;;;;;;9.28;4.40;;;;;;;13.05;69.61;101492.18;1623384;85;21026;-38
2021/09/29 09:25:40;;;;;;;5.10;3.72;;;;;;;13.12;69.12;101495.73;1643722;85;21008;-33
2021/09/29 09:28:11;;;;;;;6.83;4.33;;;;;;;13.19;67.58;101494.91;1629483;85;21053;-32
2021/09/29 09:30:38;;;;;;;8.23;4.97;;;;;;;13.27;67.91;101492.81;1641436;84;21023;-32
2021/09/29 09:33:05;;;;;;;6.75;4.92;;;;;;;13.35;67.23;101496.83;1639554;85;21074;-33
2021/09/29 09:35:45;;;;;;;8.90;5.00;;;;;;;13.39;66.84;101494.65;1634621;85;21016;-38
2021/09/29 09:38:20;;;;;;;9.48;4.95;;;;;;;13.38;65.81;101498.59;1628549;85;21123;-34
2021/09/29 09:40:45;;;;;;;5.05;4.55;;;;;;;13.32;65.97;101500.73;1620253;87;21173;-38
2021/09/29 09:43:14;;;;;;;6.50;4.67;;;;;;;13.29;65.71;101502.05;1641259;85;21082;-32
2021/09/29 09:45:48;;;;;;;6.75;5.00;;;;;;;13.25;65.33;101497.63;1628969;86;21016;-37
2021/09/29 09:48:27;;;;;;;6.15;5.55;;;;;;;13.22;65.49;101506.78;1634663;84;21650;-37
2021/09/29 09:51:07;;;;;;;8.08;5.87;;;;;;;13.17;65.45;101504.11;1635235;85;21110;-39
2021/09/29 09:53:36;;;;;;;8.35;5.35;;;;;;;13.17;65.40;101502.80;1633314;85;21122;-32
2021/09/29 09:58:46;;;;;;;5.83;5.12;;;;;;;13.15;63.81;101504.50;1628828;86;21128;-35
2021/09/29 10:01:19;;;;;;;7.72;4.97;;;;;;;13.10;64.16;101502.27;1621295;85;21599;-38
2021/09/29 10:03:48;;;;;;;8.58;6.40;;;;;;;13.07;64.58;101504.00;1627200;85;21056;-32
2021/09/29 10:06:15;;;;;;;6.58;5.17;;;;;;;13.05;64.81;101500.94;1621804;86;21570;-32
2021/09/29 10:08:48;;;;;;;5.72;4.97;;;;;;;13.09;65.31;101507.08;1618892;85;21076;-33
2021/09/29 10:11:23;;;;;;;5.83;5.08;;;;;;;13.17;64.90;101505.86;1606567;86;21044;-42
2021/09/29 10:28:18;;;;;;;6.47;4.78;;;;;;;13.54;63.91;101506.60;1645740;84;21166;-41
2021/09/29 10:32:08;;;;;;;7.25;4.92;;;;;;;13.61;63.51;101504.02;1628016;85;21135;-35
2021/09/29 10:43:23;;;;;;;8.78;4.10;;;;;;;16.82;54.96;101485.20;1640996;84;21420;-38
2021/09/29 10:49:12;;;;;;;5.55;3.60;;;;;;;18.12;50.90;101468.08;1602927;85;21613;-33
2021/09/29 11:07:28;;;;;;;6.75;3.22;;;;;;;19.22;44.73;101446.58;1639016;85;21056;-40
2021/09/29 11:10:28;;;;;;;4.77;2.70;;;;;;;18.69;45.72;101447.01;1641214;84;21634;-34
2021/09/29 11:34:49;;;;;;;6.40;2.15;;;;;;;16.69;50.59;101431.95;1642928;84;21472;-34
2021/09/29 11:37:47;;;;;;;3.20;2.30;;;;;;;16.77;50.05;101431.95;1647123;84;21017;-39
2021/09/29 12:09:54;;;;;;;6.03;3.42;;;;;;;16.39;51.73;101414.10;1639519;85;21493;-34
2021/09/29 12:14:55;;;;;;;6.22;3.27;;;;;;;15.64;53.99;101418.85;1635906;84;21066;-33
2021/09/29 12:17:34;;;;;;;4.10;3.70;;;;;;;15.32;54.97;101424.19;1627191;85;21650;-33
2021/09/29 12:20:15;;;;;;;4.97;3.52;;;;;;;15.09;55.78;101427.73;1647856;85;21089;-39
2021/09/29 12:22:47;;;;;;;5.25;3.45;;;;;;;14.89;55.65;101424.20;1611970;87;21111;-40
2021/09/29 12:25:16;;;;;;;6.72;3.52;;;;;;;14.70;56.14;101427.27;1611513;86;21161;-39
2021/09/29 12:30:33;;;;;;;5.28;4.03;;;;;;;14.41;57.55;101429.83;1639300;85;21080;-40
2021/09/29 12:35:44;;;;;;;8.80;3.70;;;;;;;14.06;58.51;101427.97;1623141;86;21064;-39
2021/09/29 12:38:12;;;;;;;4.60;3.47;;;;;;;13.93;59.22;101429.25;1635391;86;21131;-39
2021/09/29 12:40:41;;;;;;;7.70;3.75;;;;;;;13.77;59.67;101426.97;1637897;85;21417;-39
2021/09/29 12:43:14;;;;;;;6.10;3.75;;;;;;;13.69;60.36;101428.70;1637340;84;21059;-40
2021/09/29 12:45:43;;;;;;;5.60;3.83;;;;;;;13.62;60.61;101438.28;1627723;85;21129;-40
2021/09/29 12:48:13;;;;;;;5.97;4.35;;;;;;;13.56;60.58;101444.38;1628942;86;21546;-39
2021/09/29 12:53:18;;;;;;;6.55;4.40;;;;;;;13.47;61.11;101442.15;1631025;86;21613;-40
2021/09/29 12:55:37;;;;;;;7.78;4.28;;;;;;;13.45;61.40;101435.58;1632664;85;21021;-40
2021/09/29 12:58:03;;;;;;;6.05;3.90;;;;;;;13.42;61.77;101437.30;1619624;87;21764;-40
2021/09/29 13:00:30;;;;;;;7.05;4.00;;;;;;;13.37;62.02;101444.27;1670244;85;21659;-40
2021/09/29 13:03:01;;;;;;;7.22;3.90;;;;;;;13.36;62.07;101449.09;1669720;84;21030;-34
2021/09/29 13:05:26;;;;;;;7.17;3.77;;;;;;;13.33;62.17;101439.41;1657919;85;21055;-38
2021/09/29 13:10:18;;;;;;;14.33;3.70;;;;;;;13.31;62.29;101444.66;1666227;84;20978;-37
2021/09/29 13:16:32;;;;;;;6.03;3.15;;;;;;;13.41;61.87;101442.98;1817368;79;22688;-37
2021/09/29 13:19:06;;;;;;;5.15;3.70;;;;;;;13.39;61.70;101449.09;1767765;80;21024;-33
2021/09/29 13:21:51;;;;;;;10.48;3.22;;;;;;;13.41;61.20;101448.69;1724051;81;21044;-35
2021/09/29 13:36:32;;;;;;;7.33;3.62;;;;;;;13.40;60.05;101453.06;1752931;81;21113;-33
2021/09/29 13:37:43;;;;;;;4.95;3.50;;;;;;;13.38;59.92;101449.97;1756568;80;21010;-36
2021/09/29 13:40:11;;;;;;;4.58;3.50;;;;;;;13.37;60.22;101453.03;1761098;81;21069;-39
2021/09/29 13:42:38;;;;;;;3.80;3.00;;;;;;;13.33;60.41;101452.55;1730691;81;21000;-34
2021/09/29 13:45:07;;;;;;;5.50;3.87;;;;;;;13.31;60.46;101449.92;1741329;81;21021;-38
2021/09/29 13:47:34;;;;;;;5.50;3.33;;;;;;;13.30;60.32;101446.86;1728772;81;21011;-38
2021/09/29 13:50:01;;;;;;;3.72;2.70;;;;;;;13.33;60.44;101449.05;1745611;81;21065;-39
2021/09/29 13:52:28;;;;;;;5.58;3.50;;;;;;;13.36;60.66;101459.59;1733371;81;21063;-36
2021/09/29 13:55:00;;;;;;;4.03;3.17;;;;;;;13.38;60.21;101453.91;1742516;81;21078;-36
2021/09/29 13:57:30;;;;;;;5.62;3.85;;;;;;;13.37;60.19;101456.09;1760176;81;21038;-32
2021/09/29 14:00:10;;;;;;;4.40;2.98;;;;;;;13.36;59.65;101456.53;1738029;80;21071;-32
2021/09/29 14:29:50;;;;;;;4.62;3.08;;;;;;;12.97;60.75;101469.76;1665630;85;21140;-38
2021/09/29 14:32:19;;;;;;;6.50;3.15;;;;;;;12.91;61.11;101469.70;1680776;85;21576;-38
2021/09/29 14:34:43;;;;;;;4.70;3.75;;;;;;;12.89;60.82;101471.89;1681399;84;21137;-38
2021/09/29 14:37:11;;;;;;;10.65;3.52;;;;;;;12.85;60.72;101476.22;1682040;85;21134;-38
2021/09/29 14:39:39;;;;;;;6.95;3.55;;;;;;;12.82;60.87;101477.95;1682937;84;21682;-32
2021/09/29 14:42:07;;;;;;;5.40;2.95;;;;;;;12.79;61.11;101478.79;1684372;85;21062;-32
2021/09/29 14:44:35;;;;;;;4.87;3.35;;;;;;;12.77;60.94;101481.84;1684015;84;21081;-37
2021/09/29 14:47:09;;;;;;;8.73;3.40;;;;;;;12.75;60.92;101480.49;1684642;85;21508;-36
2021/09/29 14:49:31;;;;;;;5.67;3.50;;;;;;;12.73;61.34;101485.30;1683113;84;21046;-32
2021/09/29 14:51:59;;;;;;;8.33;3.50;;;;;;;12.72;61.32;101487.48;1684095;85;21057;-37
